sensor_id;sensor_type;location;lat;lon;timestamp;pressure;altitude;pressure_sealevel;temperature;humidity
12213;BME280;6169;44.158;22.788;2023-04-01T00:01:47;99916.00;;;17.01;40.63
12213;BME280;6169;44.158;22.788;2023-04-01T00:06:49;99913.38;;;17.29;39.62
12213;BME280;6169;44.158;22.788;2023-04-01T00:11:53;99917.84;;;17.25;40.60
12213;BME280;6169;44.158;22.788;2023-04-01T00:16:55;99920.97;;;17.51;39.33
12213;BME280;6169;44.158;22.788;2023-04-01T00:21:57;99904.44;;;17.37;39.59
12213;BME280;6169;44.158;22.788;2023-04-01T00:27:01;99896.09;;;17.28;39.96
12213;BME280;6169;44.158;22.788;2023-04-01T00:32:04;99882.59;;;17.46;40.24
12213;BME280;6169;44.158;22.788;2023-04-01T00:37:06;99831.50;;;16.98;40.83
12213;BME280;6169;44.158;22.788;2023-04-01T00:42:10;99869.94;;;17.31;40.20
12213;BME280;6169;44.158;22.788;2023-04-01T00:47:13;99880.84;;;17.36;40.67
12213;BME280;6169;44.158;22.788;2023-04-01T00:52:17;99875.25;;;17.41;40.98
12213;BME280;6169;44.158;22.788;2023-04-01T00:57:25;99874.94;;;17.43;40.48
12213;BME280;6169;44.158;22.788;2023-04-01T01:02:31;99862.81;;;17.30;40.09
12213;BME280;6169;44.158;22.788;2023-04-01T01:07:40;99863.06;;;17.14;41.63
12213;BME280;6169;44.158;22.788;2023-04-01T01:12:53;99847.09;;;16.84;42.80
12213;BME280;6169;44.158;22.788;2023-04-01T01:18:04;99832.88;;;16.82;42.71
12213;BME280;6169;44.158;22.788;2023-04-01T01:23:28;99835.53;;;16.87;42.17
12213;BME280;6169;44.158;22.788;2023-04-01T01:28:46;99821.69;;;16.78;42.52
12213;BME280;6169;44.158;22.788;2023-04-01T01:34:11;99812.63;;;16.78;42.05
12213;BME280;6169;44.158;22.788;2023-04-01T01:39:19;99816.06;;;17.02;41.62
12213;BME280;6169;44.158;22.788;2023-04-01T01:44:28;99821.97;;;17.09;41.29
12213;BME280;6169;44.158;22.788;2023-04-01T01:49:33;99827.66;;;16.99;41.30
12213;BME280;6169;44.158;22.788;2023-04-01T01:54:48;99824.88;;;16.66;42.06
12213;BME280;6169;44.158;22.788;2023-04-01T01:59:52;99814.97;;;17.17;40.72
12213;BME280;6169;44.158;22.788;2023-04-01T02:04:56;99817.59;;;17.08;40.61
12213;BME280;6169;44.158;22.788;2023-04-01T02:09:59;99819.56;;;16.89;42.14
12213;BME280;6169;44.158;22.788;2023-04-01T02:15:07;99826.81;;;16.66;42.59
12213;BME280;6169;44.158;22.788;2023-04-01T02:20:13;99824.78;;;17.04;41.80
12213;BME280;6169;44.158;22.788;2023-04-01T02:25:22;99829.63;;;16.80;42.76
12213;BME280;6169;44.158;22.788;2023-04-01T02:30:27;99824.63;;;16.82;43.05
12213;BME280;6169;44.158;22.788;2023-04-01T02:35:32;99824.03;;;16.52;43.87
12213;BME280;6169;44.158;22.788;2023-04-01T02:40:48;99825.03;;;16.75;42.62
12213;BME280;6169;44.158;22.788;2023-04-01T02:45:51;99829.25;;;17.19;41.21
12213;BME280;6169;44.158;22.788;2023-04-01T02:50:53;99818.69;;;17.07;41.96
12213;BME280;6169;44.158;22.788;2023-04-01T02:55:57;99811.66;;;17.01;42.14
12213;BME280;6169;44.158;22.788;2023-04-01T03:00:59;99803.63;;;16.58;43.42
12213;BME280;6169;44.158;22.788;2023-04-01T03:06:05;99802.47;;;16.78;42.53
12213;BME280;6169;44.158;22.788;2023-04-01T03:11:09;99794.56;;;16.20;44.43
12213;BME280;6169;44.158;22.788;2023-04-01T03:16:11;99794.59;;;16.39;44.12
12213;BME280;6169;44.158;22.788;2023-04-01T03:21:17;99793.97;;;16.61;40.58
12213;BME280;6169;44.158;22.788;2023-04-01T03:26:21;99791.81;;;16.77;39.42
12213;BME280;6169;44.158;22.788;2023-04-01T03:31:24;99787.50;;;16.70;41.56
12213;BME280;6169;44.158;22.788;2023-04-01T03:36:26;99779.53;;;16.88;41.96
12213;BME280;6169;44.158;22.788;2023-04-01T03:41:29;99792.00;;;16.80;41.67
12213;BME280;6169;44.158;22.788;2023-04-01T03:46:32;99791.59;;;16.87;39.61
12213;BME280;6169;44.158;22.788;2023-04-01T03:51:34;99785.75;;;17.07;38.32
12213;BME280;6169;44.158;22.788;2023-04-01T03:56:38;99781.28;;;17.11;40.00
12213;BME280;6169;44.158;22.788;2023-04-01T04:01:40;99773.56;;;17.00;40.86
12213;BME280;6169;44.158;22.788;2023-04-01T04:06:42;99774.22;;;16.78;41.54
12213;BME280;6169;44.158;22.788;2023-04-01T04:11:46;99769.66;;;16.87;43.33
12213;BME280;6169;44.158;22.788;2023-04-01T04:16:48;99758.34;;;16.75;44.16
12213;BME280;6169;44.158;22.788;2023-04-01T04:21:50;99761.94;;;16.56;43.74
12213;BME280;6169;44.158;22.788;2023-04-01T04:26:54;99753.88;;;16.79;44.30
12213;BME280;6169;44.158;22.788;2023-04-01T04:31:56;99750.06;;;16.93;43.59
12213;BME280;6169;44.158;22.788;2023-04-01T04:36:58;99741.38;;;16.86;43.83
12213;BME280;6169;44.158;22.788;2023-04-01T04:42:02;99740.19;;;17.06;43.11
12213;BME280;6169;44.158;22.788;2023-04-01T04:47:04;99737.72;;;16.77;44.24
12213;BME280;6169;44.158;22.788;2023-04-01T04:52:06;99738.63;;;16.73;44.56
12213;BME280;6169;44.158;22.788;2023-04-01T04:57:09;99736.97;;;16.58;45.01
12213;BME280;6169;44.158;22.788;2023-04-01T05:02:12;99745.59;;;17.11;44.77
12213;BME280;6169;44.158;22.788;2023-04-01T05:07:14;99746.56;;;16.74;45.65
12213;BME280;6169;44.158;22.788;2023-04-01T05:12:17;99750.19;;;16.69;46.77
12213;BME280;6169;44.158;22.788;2023-04-01T05:17:19;99750.63;;;16.77;47.76
12213;BME280;6169;44.158;22.788;2023-04-01T05:22:22;99750.56;;;17.09;47.04
12213;BME280;6169;44.158;22.788;2023-04-01T05:27:25;99754.34;;;16.67;48.37
12213;BME280;6169;44.158;22.788;2023-04-01T05:32:27;99733.34;;;16.43;49.77
12213;BME280;6169;44.158;22.788;2023-04-01T05:37:30;99709.88;;;16.37;50.39
12213;BME280;6169;44.158;22.788;2023-04-01T05:42:33;99710.13;;;16.36;50.56
12213;BME280;6169;44.158;22.788;2023-04-01T05:47:36;99720.53;;;16.39;50.33
12213;BME280;6169;44.158;22.788;2023-04-01T05:52:38;99726.09;;;15.77;51.69
12213;BME280;6169;44.158;22.788;2023-04-01T05:57:42;99756.69;;;16.22;50.21
12213;BME280;6169;44.158;22.788;2023-04-01T06:02:44;99770.56;;;16.49;50.13
12213;BME280;6169;44.158;22.788;2023-04-01T06:07:47;99788.94;;;16.30;50.99
12213;BME280;6169;44.158;22.788;2023-04-01T06:12:57;99811.03;;;16.39;49.80
12213;BME280;6169;44.158;22.788;2023-04-01T06:18:38;99825.91;;;15.95;52.29
12213;BME280;6169;44.158;22.788;2023-04-01T06:23:52;99826.91;;;15.27;53.70
12213;BME280;6169;44.158;22.788;2023-04-01T06:29:13;99798.44;;;14.64;56.24
12213;BME280;6169;44.158;22.788;2023-04-01T06:34:29;99848.19;;;15.35;54.44
12213;BME280;6169;44.158;22.788;2023-04-01T06:39:59;99855.97;;;15.52;54.22
12213;BME280;6169;44.158;22.788;2023-04-01T06:45:16;99877.84;;;15.28;55.82
12213;BME280;6169;44.158;22.788;2023-04-01T06:50:25;99873.22;;;15.23;56.06
12213;BME280;6169;44.158;22.788;2023-04-01T06:55:36;99872.75;;;15.45;54.95
12213;BME280;6169;44.158;22.788;2023-04-01T07:00:44;99877.03;;;15.56;55.16
12213;BME280;6169;44.158;22.788;2023-04-01T07:05:48;99899.56;;;15.48;55.72
12213;BME280;6169;44.158;22.788;2023-04-01T07:10:53;99884.41;;;14.98;57.32
12213;BME280;6169;44.158;22.788;2023-04-01T07:16:10;99876.34;;;15.41;56.05
12213;BME280;6169;44.158;22.788;2023-04-01T07:21:25;99864.22;;;15.47;55.33
12213;BME280;6169;44.158;22.788;2023-04-01T07:26:28;99839.75;;;16.22;52.66
12213;BME280;6169;44.158;22.788;2023-04-01T07:31:45;99820.91;;;15.78;54.19
12213;BME280;6169;44.158;22.788;2023-04-01T07:36:56;99811.78;;;15.82;54.73
12213;BME280;6169;44.158;22.788;2023-04-01T07:42:03;99771.47;;;15.16;56.86
12213;BME280;6169;44.158;22.788;2023-04-01T07:47:29;99736.03;;;15.92;55.41
12213;BME280;6169;44.158;22.788;2023-04-01T07:52:42;99723.41;;;16.28;54.98
12213;BME280;6169;44.158;22.788;2023-04-01T07:57:47;99727.56;;;16.78;54.56
12213;BME280;6169;44.158;22.788;2023-04-01T08:03:05;99724.75;;;17.38;53.83
12213;BME280;6169;44.158;22.788;2023-04-01T08:08:19;99718.88;;;17.95;53.63
12213;BME280;6169;44.158;22.788;2023-04-01T08:13:32;99694.72;;;17.92;53.08
12213;BME280;6169;44.158;22.788;2023-04-01T08:18:46;99687.97;;;17.25;54.27
12213;BME280;6169;44.158;22.788;2023-04-01T08:23:52;99691.19;;;16.86;55.17
12213;BME280;6169;44.158;22.788;2023-04-01T08:29:00;99706.25;;;16.04;57.63
12213;BME280;6169;44.158;22.788;2023-04-01T08:34:12;99720.09;;;15.94;57.75
12213;BME280;6169;44.158;22.788;2023-04-01T08:39:19;99690.53;;;16.10;57.79
12213;BME280;6169;44.158;22.788;2023-04-01T08:44:37;99688.19;;;16.36;58.16
12213;BME280;6169;44.158;22.788;2023-04-01T08:50:08;99694.81;;;16.35;57.98
12213;BME280;6169;44.158;22.788;2023-04-01T08:55:32;99670.78;;;16.59;58.14
12213;BME280;6169;44.158;22.788;2023-04-01T09:00:43;99671.66;;;17.01;57.69
12213;BME280;6169;44.158;22.788;2023-04-01T09:06:25;99665.94;;;17.53;56.20
12213;BME280;6169;44.158;22.788;2023-04-01T09:11:43;99682.16;;;17.77;55.61
12213;BME280;6169;44.158;22.788;2023-04-01T09:23:04;99659.94;;;17.87;54.98
12213;BME280;6169;44.158;22.788;2023-04-01T09:28:18;99658.09;;;17.96;54.48
12213;BME280;6169;44.158;22.788;2023-04-01T09:33:43;99674.59;;;17.96;55.43
12213;BME280;6169;44.158;22.788;2023-04-01T09:38:56;99662.09;;;18.13;54.89
12213;BME280;6169;44.158;22.788;2023-04-01T09:44:03;99595.97;;;17.73;54.59
12213;BME280;6169;44.158;22.788;2023-04-01T09:49:30;99597.47;;;17.79;54.59
12213;BME280;6169;44.158;22.788;2023-04-01T09:54:54;99603.88;;;18.19;52.97
12213;BME280;6169;44.158;22.788;2023-04-01T10:00:15;99588.56;;;18.58;53.27
12213;BME280;6169;44.158;22.788;2023-04-01T10:11:41;99626.53;;;19.27;52.61
12213;BME280;6169;44.158;22.788;2023-04-01T10:17:20;99607.97;;;18.93;52.74
12213;BME280;6169;44.158;22.788;2023-04-01T10:22:51;99605.50;;;18.74;52.73
12213;BME280;6169;44.158;22.788;2023-04-01T10:28:21;99601.47;;;18.89;50.77
12213;BME280;6169;44.158;22.788;2023-04-01T10:33:57;99620.84;;;19.32;51.36
12213;BME280;6169;44.158;22.788;2023-04-01T10:39:33;99612.56;;;19.24;50.78
12213;BME280;6169;44.158;22.788;2023-04-01T10:45:16;99605.28;;;19.19;50.61
12213;BME280;6169;44.158;22.788;2023-04-01T10:50:39;99610.44;;;18.32;52.94
12213;BME280;6169;44.158;22.788;2023-04-01T11:01:55;99584.66;;;18.59;52.60
12213;BME280;6169;44.158;22.788;2023-04-01T11:12:54;99558.13;;;19.29;52.08
12213;BME280;6169;44.158;22.788;2023-04-01T11:24:03;99529.53;;;20.12;51.30
12213;BME280;6169;44.158;22.788;2023-04-01T11:40:37;99514.50;;;20.99;44.82
12213;BME280;6169;44.158;22.788;2023-04-01T11:45:46;99517.63;;;20.97;45.86
12213;BME280;6169;44.158;22.788;2023-04-01T11:50:59;99515.19;;;20.96;45.33
12213;BME280;6169;44.158;22.788;2023-04-01T11:56:14;99499.53;;;21.21;44.96
12213;BME280;6169;44.158;22.788;2023-04-01T12:01:29;99504.38;;;21.66;44.52
12213;BME280;6169;44.158;22.788;2023-04-01T12:06:40;99493.34;;;21.45;43.35
12213;BME280;6169;44.158;22.788;2023-04-01T12:11:54;99482.31;;;21.90;42.30
12213;BME280;6169;44.158;22.788;2023-04-01T12:17:07;99486.94;;;22.11;40.76
12213;BME280;6169;44.158;22.788;2023-04-01T12:22:29;99470.72;;;21.64;39.26
12213;BME280;6169;44.158;22.788;2023-04-01T12:27:42;99458.56;;;20.81;38.71
12213;BME280;6169;44.158;22.788;2023-04-01T12:32:53;99452.72;;;20.82;38.94
12213;BME280;6169;44.158;22.788;2023-04-01T12:38:17;99453.09;;;20.42;39.99
12213;BME280;6169;44.158;22.788;2023-04-01T12:43:54;99453.38;;;21.21;41.62
12213;BME280;6169;44.158;22.788;2023-04-01T12:49:18;99449.78;;;20.79;39.26
12213;BME280;6169;44.158;22.788;2023-04-01T12:54:58;99446.13;;;20.07;39.92
12213;BME280;6169;44.158;22.788;2023-04-01T13:00:17;99455.53;;;19.58;40.77
12213;BME280;6169;44.158;22.788;2023-04-01T13:05:52;99462.94;;;19.75;42.22
12213;BME280;6169;44.158;22.788;2023-04-01T13:11:09;99505.63;;;17.35;46.01
12213;BME280;6169;44.158;22.788;2023-04-01T13:16:22;99497.03;;;17.14;50.02
12213;BME280;6169;44.158;22.788;2023-04-01T13:21:44;99496.78;;;17.92;51.59
12213;BME280;6169;44.158;22.788;2023-04-01T13:26:59;99494.34;;;18.13;48.66
12213;BME280;6169;44.158;22.788;2023-04-01T13:32:14;99498.13;;;17.49;50.31
12213;BME280;6169;44.158;22.788;2023-04-01T13:37:26;99500.06;;;17.71;51.59
12213;BME280;6169;44.158;22.788;2023-04-01T13:42:37;99494.41;;;17.68;54.33
12213;BME280;6169;44.158;22.788;2023-04-01T13:48:26;99478.88;;;18.91;51.61
12213;BME280;6169;44.158;22.788;2023-04-01T13:53:56;99486.50;;;19.64;48.99
12213;BME280;6169;44.158;22.788;2023-04-01T13:59:17;99480.91;;;18.51;50.76
12213;BME280;6169;44.158;22.788;2023-04-01T14:04:45;99492.31;;;18.93;50.03
12213;BME280;6169;44.158;22.788;2023-04-01T14:10:06;99497.66;;;18.98;49.57
12213;BME280;6169;44.158;22.788;2023-04-01T14:15:29;99507.28;;;18.61;50.82
12213;BME280;6169;44.158;22.788;2023-04-01T14:20:41;99506.44;;;19.09;49.87
12213;BME280;6169;44.158;22.788;2023-04-01T14:26:03;99509.97;;;19.35;49.33
12213;BME280;6169;44.158;22.788;2023-04-01T14:36:58;99519.72;;;18.49;51.05
12213;BME280;6169;44.158;22.788;2023-04-01T14:42:06;99548.09;;;17.74;54.74
12213;BME280;6169;44.158;22.788;2023-04-01T14:47:28;99566.25;;;16.61;60.09
12213;BME280;6169;44.158;22.788;2023-04-01T14:52:36;99575.69;;;16.55;60.08
12213;BME280;6169;44.158;22.788;2023-04-01T14:57:39;99558.97;;;17.06;58.67
12213;BME280;6169;44.158;22.788;2023-04-01T15:02:57;99556.28;;;17.43;57.32
12213;BME280;6169;44.158;22.788;2023-04-01T15:08:14;99552.09;;;17.68;56.45
12213;BME280;6169;44.158;22.788;2023-04-01T15:13:26;99561.16;;;17.46;57.05
12213;BME280;6169;44.158;22.788;2023-04-01T15:18:41;99555.41;;;17.56;57.02
12213;BME280;6169;44.158;22.788;2023-04-01T15:23:57;99552.78;;;18.18;54.51
12213;BME280;6169;44.158;22.788;2023-04-01T15:34:36;99561.97;;;17.69;56.23
12213;BME280;6169;44.158;22.788;2023-04-01T15:39:52;99559.91;;;17.74;55.50
12213;BME280;6169;44.158;22.788;2023-04-01T15:45:09;99565.47;;;17.83;54.99
12213;BME280;6169;44.158;22.788;2023-04-01T15:50:55;99580.22;;;18.10;54.50
12213;BME280;6169;44.158;22.788;2023-04-01T15:56:15;99578.47;;;17.32;57.47
12213;BME280;6169;44.158;22.788;2023-04-01T16:01:34;99586.00;;;17.63;57.43
12213;BME280;6169;44.158;22.788;2023-04-01T16:06:49;99585.78;;;18.18;54.51
12213;BME280;6169;44.158;22.788;2023-04-01T16:12:04;99588.41;;;17.78;55.55
12213;BME280;6169;44.158;22.788;2023-04-01T16:17:27;99600.00;;;17.53;55.93
12213;BME280;6169;44.158;22.788;2023-04-01T16:22:37;99632.25;;;16.37;61.10
12213;BME280;6169;44.158;22.788;2023-04-01T16:27:46;99639.00;;;15.36;57.12
12213;BME280;6169;44.158;22.788;2023-04-01T16:32:54;99652.16;;;14.33;57.43
12213;BME280;6169;44.158;22.788;2023-04-01T16:38:07;99665.84;;;14.33;56.04
12213;BME280;6169;44.158;22.788;2023-04-01T16:43:21;99640.66;;;14.36;55.76
12213;BME280;6169;44.158;22.788;2023-04-01T16:48:52;99685.41;;;14.11;55.50
12213;BME280;6169;44.158;22.788;2023-04-01T16:54:06;99706.78;;;14.03;55.46
12213;BME280;6169;44.158;22.788;2023-04-01T16:59:20;99720.16;;;14.05;54.13
12213;BME280;6169;44.158;22.788;2023-04-01T17:04:31;99721.28;;;14.04;53.30
12213;BME280;6169;44.158;22.788;2023-04-01T17:09:51;99733.81;;;14.05;54.09
12213;BME280;6169;44.158;22.788;2023-04-01T17:15:05;99751.47;;;13.73;53.78
12213;BME280;6169;44.158;22.788;2023-04-01T17:20:26;99756.09;;;13.78;53.84
12213;BME280;6169;44.158;22.788;2023-04-01T17:25:58;99762.09;;;13.85;54.69
12213;BME280;6169;44.158;22.788;2023-04-01T17:31:10;99763.03;;;14.10;53.06
12213;BME280;6169;44.158;22.788;2023-04-01T17:36:21;99774.72;;;13.76;54.09
12213;BME280;6169;44.158;22.788;2023-04-01T17:41:40;99792.94;;;13.91;53.34
12213;BME280;6169;44.158;22.788;2023-04-01T17:47:00;99804.09;;;13.19;54.33
12213;BME280;6169;44.158;22.788;2023-04-01T17:52:14;99805.41;;;13.32;54.18
12213;BME280;6169;44.158;22.788;2023-04-01T17:57:34;99817.09;;;13.53;53.04
12213;BME280;6169;44.158;22.788;2023-04-01T18:02:49;99828.69;;;13.94;51.99
12213;BME280;6169;44.158;22.788;2023-04-01T18:08:12;99828.44;;;13.91;51.34
12213;BME280;6169;44.158;22.788;2023-04-01T18:13:38;99831.25;;;13.60;52.23
12213;BME280;6169;44.158;22.788;2023-04-01T18:18:56;99847.25;;;13.97;50.64
12213;BME280;6169;44.158;22.788;2023-04-01T18:24:10;99844.94;;;14.25;50.60
12213;BME280;6169;44.158;22.788;2023-04-01T18:29:27;99854.81;;;14.21;50.97
12213;BME280;6169;44.158;22.788;2023-04-01T18:34:43;99855.81;;;13.70;51.38
12213;BME280;6169;44.158;22.788;2023-04-01T18:39:55;99846.81;;;13.75;51.46
12213;BME280;6169;44.158;22.788;2023-04-01T18:45:14;99847.94;;;13.58;52.40
12213;BME280;6169;44.158;22.788;2023-04-01T18:50:27;99850.63;;;13.84;50.86
12213;BME280;6169;44.158;22.788;2023-04-01T18:55:39;99854.47;;;13.63;51.84
12213;BME280;6169;44.158;22.788;2023-04-01T19:00:49;99863.97;;;13.86;50.62
12213;BME280;6169;44.158;22.788;2023-04-01T19:06:00;99874.09;;;13.85;50.70
12213;BME280;6169;44.158;22.788;2023-04-01T19:11:09;99898.09;;;14.03;51.08
12213;BME280;6169;44.158;22.788;2023-04-01T19:16:23;99906.84;;;14.50;49.96
12213;BME280;6169;44.158;22.788;2023-04-01T19:21:33;99901.97;;;13.87;51.59
12213;BME280;6169;44.158;22.788;2023-04-01T19:26:42;99908.69;;;14.15;51.43
12213;BME280;6169;44.158;22.788;2023-04-01T19:31:58;99911.06;;;14.32;51.16
12213;BME280;6169;44.158;22.788;2023-04-01T19:37:10;99914.66;;;14.17;51.42
12213;BME280;6169;44.158;22.788;2023-04-01T19:42:29;99919.38;;;14.61;50.55
12213;BME280;6169;44.158;22.788;2023-04-01T19:47:54;99929.50;;;14.61;51.31
12213;BME280;6169;44.158;22.788;2023-04-01T19:53:06;99930.47;;;14.31;52.48
12213;BME280;6169;44.158;22.788;2023-04-01T19:58:18;99938.19;;;14.23;52.33
12213;BME280;6169;44.158;22.788;2023-04-01T20:03:34;99950.25;;;14.07;52.66
12213;BME280;6169;44.158;22.788;2023-04-01T20:08:42;99959.75;;;14.25;52.24
12213;BME280;6169;44.158;22.788;2023-04-01T20:13:53;99965.31;;;14.69;50.97
12213;BME280;6169;44.158;22.788;2023-04-01T20:19:00;99968.38;;;14.53;52.27
12213;BME280;6169;44.158;22.788;2023-04-01T20:24:15;99972.56;;;14.89;50.79
12213;BME280;6169;44.158;22.788;2023-04-01T20:29:36;99969.28;;;14.92;50.06
12213;BME280;6169;44.158;22.788;2023-04-01T20:34:55;99967.63;;;14.37;51.54
12213;BME280;6169;44.158;22.788;2023-04-01T20:40:32;99970.69;;;14.20;51.51
12213;BME280;6169;44.158;22.788;2023-04-01T20:45:40;99976.13;;;14.35;51.10
12213;BME280;6169;44.158;22.788;2023-04-01T20:50:47;99973.88;;;14.42;51.33
12213;BME280;6169;44.158;22.788;2023-04-01T21:01:39;99984.34;;;14.30;51.57
12213;BME280;6169;44.158;22.788;2023-04-01T21:12:33;99972.38;;;14.06;52.26
12213;BME280;6169;44.158;22.788;2023-04-01T21:17:53;99963.44;;;13.90;52.86
12213;BME280;6169;44.158;22.788;2023-04-01T21:23:09;99976.72;;;14.17;52.41
12213;BME280;6169;44.158;22.788;2023-04-01T21:28:23;99980.88;;;14.04;53.13
12213;BME280;6169;44.158;22.788;2023-04-01T21:33:42;99981.44;;;13.96;53.03
12213;BME280;6169;44.158;22.788;2023-04-01T21:38:59;99978.91;;;14.20;52.29
12213;BME280;6169;44.158;22.788;2023-04-01T21:44:39;99981.63;;;14.25;51.97
12213;BME280;6169;44.158;22.788;2023-04-01T21:50:00;99989.94;;;13.79;53.71
12213;BME280;6169;44.158;22.788;2023-04-01T21:55:24;99983.63;;;13.99;53.12
12213;BME280;6169;44.158;22.788;2023-04-01T22:00:32;99982.16;;;14.32;51.92
12213;BME280;6169;44.158;22.788;2023-04-01T22:05:37;99989.66;;;14.71;51.00
12213;BME280;6169;44.158;22.788;2023-04-01T22:10:44;99981.06;;;14.23;52.32
12213;BME280;6169;44.158;22.788;2023-04-01T22:15:55;99976.13;;;14.30;51.60
12213;BME280;6169;44.158;22.788;2023-04-01T22:21:05;99974.91;;;14.67;50.79
12213;BME280;6169;44.158;22.788;2023-04-01T22:26:14;99973.72;;;14.18;51.43
12213;BME280;6169;44.158;22.788;2023-04-01T22:31:23;99984.47;;;14.59;50.69
12213;BME280;6169;44.158;22.788;2023-04-01T22:36:36;99988.59;;;14.57;50.54
12213;BME280;6169;44.158;22.788;2023-04-01T22:42:00;99986.03;;;14.86;49.92
12213;BME280;6169;44.158;22.788;2023-04-01T22:47:08;99990.84;;;14.44;51.97
12213;BME280;6169;44.158;22.788;2023-04-01T22:52:22;100001.44;;;14.56;51.44
12213;BME280;6169;44.158;22.788;2023-04-01T22:57:38;100004.59;;;14.19;52.95
12213;BME280;6169;44.158;22.788;2023-04-01T23:02:45;99986.34;;;13.99;53.13
12213;BME280;6169;44.158;22.788;2023-04-01T23:07:54;100004.06;;;14.22;51.72
12213;BME280;6169;44.158;22.788;2023-04-01T23:13:00;99942.31;;;14.16;51.00
12213;BME280;6169;44.158;22.788;2023-04-01T23:18:11;99996.94;;;14.26;51.49
12213;BME280;6169;44.158;22.788;2023-04-01T23:23:30;99987.72;;;14.01;52.16
12213;BME280;6169;44.158;22.788;2023-04-01T23:28:45;99990.06;;;14.29;51.15
12213;BME280;6169;44.158;22.788;2023-04-01T23:33:53;99990.84;;;14.39;51.00
12213;BME280;6169;44.158;22.788;2023-04-01T23:39:02;100008.72;;;14.06;51.20
12213;BME280;6169;44.158;22.788;2023-04-01T23:44:09;100003.56;;;14.04;51.57
12213;BME280;6169;44.158;22.788;2023-04-01T23:49:15;100006.41;;;14.54;49.77
12213;BME280;6169;44.158;22.788;2023-04-01T23:54:25;99995.72;;;14.53;48.69
12213;BME280;6169;44.158;22.788;2023-04-01T23:59:34;99998.03;;;14.25;49.33
